createdAt,value
2022-10-11T00:02:09.151Z,5.63
2022-10-11T00:07:14.012Z,5.43
2022-10-11T00:12:21.367Z,5.30
2022-10-11T00:17:26.201Z,5.67
2022-10-11T00:22:31.010Z,5.60
2022-10-11T00:27:40.696Z,5.20
2022-10-11T00:32:45.538Z,5.33
2022-10-11T00:37:50.430Z,5.37
2022-10-11T00:42:57.835Z,5.77
2022-10-11T00:48:11.653Z,5.30
2022-10-11T00:53:16.987Z,5.83
2022-10-11T00:58:26.532Z,4.93
2022-10-11T01:03:34.069Z,5.10
2022-10-11T01:08:39.755Z,5.60
2022-10-11T01:13:59.145Z,5.47
2022-10-11T01:19:16.672Z,5.60
2022-10-11T01:24:42.035Z,5.37
2022-10-11T01:30:00.235Z,5.57
2022-10-11T01:35:13.450Z,5.67
2022-10-11T01:40:24.672Z,5.93
2022-10-11T01:45:30.275Z,5.53
2022-10-11T01:50:47.872Z,6.67
2022-10-11T01:55:57.631Z,5.77
2022-10-11T02:01:12.063Z,6.50
2022-10-11T02:06:25.807Z,6.10
2022-10-11T02:11:33.669Z,6.60
2022-10-11T02:16:45.582Z,7.57
2022-10-11T02:21:57.448Z,7.77
2022-10-11T02:27:04.934Z,7.43
2022-10-11T02:32:11.411Z,7.70
2022-10-11T02:37:25.592Z,7.37
2022-10-11T02:42:37.289Z,7.10
2022-10-11T02:47:43.330Z,8.43
2022-10-11T02:52:52.991Z,8.13
2022-10-11T02:57:57.910Z,7.33
2022-10-11T03:03:04.988Z,8.87
2022-10-11T03:08:13.830Z,8.27
2022-10-11T03:13:18.705Z,7.03
2022-10-11T03:18:24.059Z,5.70
2022-10-11T03:23:31.481Z,6.10
2022-10-11T03:28:36.622Z,6.13
2022-10-11T03:33:41.635Z,5.57
2022-10-11T03:38:49.468Z,5.00
2022-10-11T03:43:54.328Z,5.30
2022-10-11T03:48:59.046Z,4.80
2022-10-11T03:54:06.741Z,4.27
2022-10-11T03:59:11.689Z,3.40
2022-10-11T04:04:19.268Z,3.67
2022-10-11T04:09:26.887Z,3.93
2022-10-11T04:14:31.749Z,3.70
2022-10-11T04:19:37.272Z,3.50
2022-10-11T04:24:44.983Z,3.70
2022-10-11T04:29:50.347Z,3.90
2022-10-11T04:34:55.297Z,5.17
2022-10-11T04:40:02.798Z,4.60
2022-10-11T04:45:12.094Z,3.80
2022-10-11T04:50:17.124Z,4.33
2022-10-11T04:55:26.605Z,4.20
2022-10-11T05:00:33.774Z,4.23
2022-10-11T05:05:38.856Z,2.90
2022-10-11T05:10:57.310Z,3.30
2022-10-11T05:16:05.800Z,3.20
2022-10-11T05:21:19.530Z,3.30
2022-10-11T05:26:28.695Z,2.97
2022-10-11T05:31:34.296Z,2.90
2022-10-11T05:36:39.807Z,3.27
2022-10-11T05:41:47.594Z,3.00
2022-10-11T05:46:55.511Z,2.97
2022-10-11T05:52:06.744Z,3.00
2022-10-11T05:57:16.760Z,3.80
2022-10-11T06:02:22.438Z,3.57
2022-10-11T06:07:27.278Z,4.07
2022-10-11T06:12:35.204Z,3.50
2022-10-11T06:17:40.198Z,3.30
2022-10-11T06:22:45.481Z,3.07
2022-10-11T06:27:52.929Z,3.23
2022-10-11T06:33:04.579Z,3.67
2022-10-11T06:38:09.969Z,3.10
2022-10-11T06:43:17.733Z,3.80
2022-10-11T06:48:22.765Z,3.30
2022-10-11T06:53:28.030Z,4.93
2022-10-11T06:58:36.506Z,2.60
2022-10-11T07:03:41.827Z,3.43
2022-10-11T07:08:46.797Z,2.10
2022-10-11T07:13:55.818Z,2.17
2022-10-11T07:19:02.654Z,2.30
2022-10-11T07:24:08.472Z,2.37
2022-10-11T07:29:16.190Z,3.53
2022-10-11T07:34:22.944Z,3.53
2022-10-11T07:39:33.147Z,3.13
2022-10-11T07:44:42.039Z,3.17
2022-10-11T07:49:48.719Z,3.37
2022-10-11T07:54:54.353Z,2.67
2022-10-11T08:00:01.816Z,2.90
2022-10-11T08:05:16.975Z,3.07
2022-10-11T08:10:23.597Z,2.72
2022-10-11T08:15:32.244Z,3.10
2022-10-11T08:20:39.534Z,2.83
2022-10-11T08:25:49.382Z,2.37
2022-10-11T08:30:57.896Z,3.08
2022-10-11T08:36:07.600Z,2.47
2022-10-11T08:41:32.465Z,2.45
2022-10-11T08:46:42.122Z,2.53
2022-10-11T08:51:51.014Z,2.95
2022-10-11T08:56:56.346Z,2.03
2022-10-11T09:02:55.516Z,2.13
2022-10-11T09:08:10.288Z,2.60
2022-10-11T09:13:41.794Z,2.55
2022-10-11T09:19:25.764Z,2.65
2022-10-11T09:24:47.458Z,2.90
2022-10-11T09:30:00.868Z,2.65
2022-10-11T09:35:14.544Z,1.90
2022-10-11T09:40:36.695Z,2.58
2022-10-11T09:45:49.187Z,2.13
2022-10-11T09:51:02.047Z,2.42
2022-10-11T09:56:09.677Z,2.30
2022-10-11T10:01:25.726Z,2.40
2022-10-11T10:06:33.326Z,2.00
2022-10-11T10:11:40.184Z,2.33
2022-10-11T10:16:45.076Z,1.85
2022-10-11T10:21:55.121Z,1.88
2022-10-11T10:27:19.119Z,2.50
2022-10-11T10:32:28.247Z,2.70
2022-10-11T10:37:42.502Z,2.05
2022-10-11T10:42:47.640Z,2.00
2022-10-11T10:48:12.088Z,2.00
2022-10-11T10:53:27.201Z,2.43
2022-10-11T10:58:48.153Z,2.00
2022-10-11T11:03:58.640Z,2.03
2022-10-11T11:09:20.799Z,2.30
2022-10-11T11:14:36.922Z,2.07
2022-10-11T11:19:56.531Z,2.17
2022-10-11T11:25:12.408Z,2.77
2022-10-11T11:30:23.411Z,2.20
2022-10-11T11:35:32.092Z,1.90
2022-10-11T11:40:44.507Z,2.17
2022-10-11T11:45:53.820Z,1.30
2022-10-11T11:51:05.619Z,1.87
2022-10-11T11:56:21.482Z,2.17
2022-10-11T12:01:31.568Z,1.43
2022-10-11T12:06:52.391Z,2.43
2022-10-11T12:12:08.932Z,1.60
2022-10-11T12:17:24.512Z,1.67
2022-10-11T12:22:58.511Z,1.63
2022-10-11T12:28:41.282Z,1.33
2022-10-11T12:33:56.591Z,1.70
2022-10-11T12:39:31.174Z,1.87
2022-10-11T12:44:38.650Z,2.20
2022-10-11T12:50:06.663Z,1.70
2022-10-11T12:55:42.888Z,1.30
2022-10-11T13:01:11.996Z,1.83
2022-10-11T13:06:20.589Z,1.67
2022-10-11T13:11:30.306Z,2.70
2022-10-11T13:16:54.555Z,2.17
2022-10-11T13:22:04.015Z,1.80
2022-10-11T13:27:10.281Z,1.47
2022-10-11T13:32:20.822Z,1.50
2022-10-11T13:37:28.359Z,2.03
2022-10-11T13:42:35.808Z,1.70
2022-10-11T13:47:44.656Z,1.43
2022-10-11T13:53:01.014Z,2.10
2022-10-11T13:58:18.406Z,2.30
2022-10-11T14:03:42.864Z,2.10
2022-10-11T14:08:50.692Z,1.63
2022-10-11T14:13:56.836Z,1.77
2022-10-11T14:19:15.476Z,1.60
2022-10-11T14:24:21.415Z,1.97
2022-10-11T14:29:28.952Z,1.40
2022-10-11T14:34:37.713Z,1.57
2022-10-11T14:39:42.540Z,1.33
2022-10-11T14:44:47.689Z,1.70
2022-10-11T14:49:56.172Z,3.03
2022-10-11T14:55:01.104Z,1.90
2022-10-11T15:00:08.608Z,1.90
2022-10-11T15:05:16.143Z,1.53
2022-10-11T15:10:24.692Z,2.10
2022-10-11T15:15:37.971Z,1.60
2022-10-11T15:20:48.295Z,1.27
2022-10-11T15:25:53.272Z,2.00
2022-10-11T15:30:58.823Z,1.70
2022-10-11T15:36:09.571Z,1.50
2022-10-11T15:41:15.997Z,1.60
2022-10-11T15:46:23.288Z,2.03
2022-10-11T15:51:30.961Z,1.83
2022-10-11T15:56:37.089Z,2.80
2022-10-11T16:01:42.106Z,2.10
2022-10-11T16:06:49.906Z,3.17
2022-10-11T16:11:55.165Z,3.30
2022-10-11T16:17:02.863Z,3.77
2022-10-11T16:22:10.656Z,3.27
2022-10-11T16:27:18.821Z,1.80
2022-10-11T16:32:26.234Z,1.80
2022-10-11T16:37:34.261Z,3.20
2022-10-11T16:42:41.572Z,2.93
2022-10-11T16:47:47.048Z,2.20
2022-10-11T16:52:55.985Z,4.00
2022-10-11T16:58:00.821Z,4.23
2022-10-11T17:03:05.592Z,3.97
2022-10-11T17:08:13.215Z,4.57
2022-10-11T17:13:18.025Z,5.47
2022-10-11T17:18:22.745Z,4.93
2022-10-11T17:23:30.525Z,4.37
2022-10-11T17:28:36.314Z,4.50
2022-10-11T17:33:41.780Z,5.20
2022-10-11T17:38:49.155Z,5.73
2022-10-11T17:43:54.171Z,15.70
2022-10-11T17:48:59.254Z,5.30
2022-10-11T17:54:12.423Z,6.23
2022-10-11T17:59:21.300Z,7.37
2022-10-11T18:04:29.461Z,5.87
2022-10-11T18:09:37.054Z,5.83
2022-10-11T18:14:41.967Z,6.20
2022-10-11T18:19:47.079Z,5.37
2022-10-11T18:24:54.740Z,6.33
2022-10-11T18:30:00.128Z,5.77
2022-10-11T18:35:05.423Z,6.73
2022-10-11T18:40:14.637Z,12.50
2022-10-11T18:45:22.578Z,7.03
2022-10-11T18:50:27.775Z,8.20
2022-10-11T18:55:35.306Z,8.27
2022-10-11T19:00:41.452Z,7.30
2022-10-11T19:05:47.006Z,7.90
2022-10-11T19:10:55.011Z,12.40
2022-10-11T19:16:07.130Z,13.50
2022-10-11T19:21:16.873Z,11.17
2022-10-11T19:26:33.696Z,12.03
2022-10-11T19:31:45.991Z,10.13
2022-10-11T19:36:55.302Z,8.40
2022-10-11T19:42:05.059Z,9.37
2022-10-11T19:47:10.828Z,8.83
2022-10-11T19:52:15.940Z,7.17
2022-10-11T19:57:23.634Z,6.47
2022-10-11T20:02:28.517Z,8.57
2022-10-11T20:07:33.817Z,9.27
2022-10-11T20:12:45.806Z,8.90
2022-10-11T20:17:51.752Z,9.40
2022-10-11T20:22:56.534Z,7.80
2022-10-11T20:28:03.908Z,7.10
2022-10-11T20:33:08.785Z,7.77
2022-10-11T20:38:13.592Z,8.67
2022-10-11T20:43:23.356Z,5.80
2022-10-11T20:48:32.037Z,6.83
2022-10-11T20:53:37.546Z,7.27
2022-10-11T20:58:45.894Z,7.03
2022-10-11T21:03:50.905Z,6.47
2022-10-11T21:08:59.107Z,7.17
2022-10-11T21:14:08.686Z,7.13
2022-10-11T21:19:17.754Z,6.57
2022-10-11T21:24:23.043Z,6.73
2022-10-11T21:29:30.745Z,6.37
2022-10-11T21:34:35.960Z,6.60
2022-10-11T21:39:40.884Z,6.07
2022-10-11T21:44:48.324Z,9.93
2022-10-11T21:49:53.432Z,7.13
2022-10-11T21:54:58.262Z,6.90
2022-10-11T22:00:05.882Z,6.33
2022-10-11T22:05:18.862Z,6.50
2022-10-11T22:10:23.718Z,6.37
2022-10-11T22:15:31.263Z,5.37
2022-10-11T22:20:36.624Z,6.50
2022-10-11T22:25:42.024Z,7.57
2022-10-11T22:30:50.089Z,7.83
2022-10-11T22:35:57.537Z,9.00
2022-10-11T22:41:02.497Z,9.57
2022-10-11T22:46:10.901Z,9.53
2022-10-11T22:51:15.859Z,7.43
2022-10-11T22:56:20.734Z,7.40
2022-10-11T23:01:28.238Z,7.57
2022-10-11T23:06:33.044Z,5.67
2022-10-11T23:11:38.300Z,5.87
2022-10-11T23:16:45.801Z,5.90
2022-10-11T23:21:50.554Z,6.37
2022-10-11T23:26:55.346Z,5.50
2022-10-11T23:32:02.832Z,6.27
2022-10-11T23:37:08.298Z,5.17
2022-10-11T23:42:13.208Z,5.57
2022-10-11T23:47:20.644Z,5.93
2022-10-11T23:52:25.388Z,5.67
2022-10-11T23:57:30.284Z,6.03
